createdAt,value
2018-04-11T00:00:19.300Z,85.16
2018-04-11T00:03:21.794Z,85.59
2018-04-11T00:06:24.265Z,85.74
2018-04-11T00:09:26.788Z,86.13
2018-04-11T00:12:29.354Z,86.16
2018-04-11T00:15:31.896Z,86.32
2018-04-11T00:18:34.434Z,86.64
2018-04-11T00:21:36.909Z,86.79
2018-04-11T00:24:39.503Z,87.12
2018-04-11T00:27:42.017Z,87.20
2018-04-11T00:30:44.495Z,87.32
2018-04-11T00:33:47.004Z,87.25
2018-04-11T00:36:49.648Z,87.41
2018-04-11T00:39:52.192Z,87.88
2018-04-11T00:42:54.662Z,87.82
2018-04-11T00:45:57.233Z,88.31
2018-04-11T00:48:59.749Z,88.39
2018-04-11T00:52:02.250Z,88.86
2018-04-11T00:55:04.751Z,88.69
2018-04-11T00:58:07.288Z,88.63
2018-04-11T01:01:09.809Z,89.18
2018-04-11T01:04:12.350Z,89.41
2018-04-11T01:07:14.866Z,89.26
2018-04-11T01:10:17.376Z,89.24
2018-04-11T01:13:19.989Z,89.45
2018-04-11T01:16:22.479Z,89.57
2018-04-11T01:19:24.940Z,89.40
2018-04-11T01:22:27.435Z,89.90
2018-04-11T01:25:29.929Z,89.86
2018-04-11T01:28:32.489Z,89.83
2018-04-11T01:31:34.967Z,90.02
2018-04-11T01:34:37.462Z,90.12
2018-04-11T01:37:39.965Z,90.19
2018-04-11T01:40:42.469Z,90.45
2018-04-11T01:43:44.959Z,90.29
2018-04-11T01:46:47.425Z,90.10
2018-04-11T01:49:49.919Z,90.15
2018-04-11T01:52:52.484Z,90.33
2018-04-11T01:55:55.000Z,90.44
2018-04-11T01:58:57.455Z,90.20
2018-04-11T02:01:59.936Z,90.37
2018-04-11T02:05:02.428Z,90.53
2018-04-11T02:08:04.926Z,90.37
2018-04-11T02:11:07.391Z,90.63
2018-04-11T02:14:09.873Z,90.73
2018-04-11T02:17:12.372Z,90.70
2018-04-11T02:20:14.933Z,90.76
2018-04-11T02:23:17.392Z,90.78
2018-04-11T02:26:19.887Z,91.04
2018-04-11T02:29:22.352Z,91.18
2018-04-11T02:32:24.879Z,91.10
2018-04-11T02:35:27.339Z,91.11
2018-04-11T02:38:30.248Z,91.19
2018-04-11T02:41:32.698Z,91.07
2018-04-11T02:44:35.237Z,91.05
2018-04-11T02:47:37.792Z,91.10
2018-04-11T02:50:40.240Z,91.52
2018-04-11T02:53:42.823Z,91.41
2018-04-11T02:56:45.292Z,91.41
2018-04-11T02:59:47.792Z,91.54
2018-04-11T03:02:50.297Z,91.34
2018-04-11T03:05:52.772Z,91.47
2018-04-11T03:08:55.331Z,91.43
2018-04-11T03:11:57.787Z,91.65
2018-04-11T03:15:00.298Z,91.62
2018-04-11T03:18:02.922Z,91.81
2018-04-11T03:21:05.427Z,91.51
2018-04-11T03:24:07.916Z,91.28
2018-04-11T03:27:10.403Z,91.40
2018-04-11T03:30:12.960Z,91.77
2018-04-11T03:33:15.518Z,91.63
2018-04-11T03:36:18.020Z,91.53
2018-04-11T03:39:20.649Z,91.62
2018-04-11T03:42:23.145Z,91.68
2018-04-11T03:45:25.610Z,92.03
2018-04-11T03:48:28.113Z,91.15
2018-04-11T03:51:30.593Z,91.56
2018-04-11T03:54:33.093Z,91.20
2018-04-11T03:57:35.612Z,91.70
2018-04-11T04:00:38.102Z,90.95
2018-04-11T04:03:40.638Z,90.92
2018-04-11T04:06:43.205Z,90.87
2018-04-11T04:09:45.656Z,90.59
2018-04-11T04:12:48.186Z,90.91
2018-04-11T04:16:02.550Z,90.61
2018-04-11T04:19:17.009Z,90.10
2018-04-11T04:22:19.552Z,89.92
2018-04-11T04:25:22.023Z,90.22
2018-04-11T04:28:24.574Z,90.35
2018-04-11T04:31:27.141Z,89.64
2018-04-11T04:34:29.657Z,90.02
2018-04-11T04:37:32.169Z,89.93
2018-04-11T04:40:34.722Z,89.59
2018-04-11T04:43:37.253Z,90.06
2018-04-11T04:46:39.751Z,89.41
2018-04-11T04:49:42.237Z,89.57
2018-04-11T04:52:44.737Z,89.05
2018-04-11T04:55:47.197Z,88.92
2018-04-11T04:58:49.725Z,88.58
2018-04-11T05:01:52.253Z,88.52
2018-04-11T05:04:54.816Z,88.60
2018-04-11T05:07:57.320Z,88.77
2018-04-11T05:10:59.805Z,87.91
2018-04-11T05:14:02.302Z,86.83
2018-04-11T05:17:04.782Z,83.18
2018-04-11T05:20:07.356Z,81.08
2018-04-11T05:23:09.919Z,79.45
2018-04-11T05:26:12.376Z,78.04
2018-04-11T05:29:14.910Z,80.36
2018-04-11T05:32:17.398Z,81.82
2018-04-11T05:35:19.939Z,82.50
2018-04-11T05:38:22.495Z,82.45
2018-04-11T05:41:25.160Z,83.07
2018-04-11T05:44:27.725Z,84.00
2018-04-11T05:47:30.281Z,84.58
2018-04-11T05:50:32.807Z,84.65
2018-04-11T05:53:35.304Z,84.97
2018-04-11T05:56:37.792Z,85.61
2018-04-11T05:59:41.579Z,84.80
2018-04-11T06:02:44.129Z,85.58
2018-04-11T06:05:46.652Z,85.54
2018-04-11T06:08:49.251Z,84.86
2018-04-11T06:11:51.820Z,85.55
2018-04-11T06:14:54.465Z,85.39
2018-04-11T06:17:56.945Z,84.80
2018-04-11T06:20:59.483Z,85.38
2018-04-11T06:24:01.989Z,85.49
2018-04-11T06:27:04.496Z,86.16
2018-04-11T06:30:06.973Z,85.80
2018-04-11T06:33:09.540Z,86.54
2018-04-11T06:36:12.025Z,86.29
2018-04-11T06:39:14.570Z,85.70
2018-04-11T06:42:17.059Z,85.71
2018-04-11T06:45:19.519Z,86.01
2018-04-11T06:48:22.016Z,86.14
2018-04-11T06:51:24.679Z,86.86
2018-04-11T06:54:27.142Z,86.60
2018-04-11T06:57:29.844Z,86.07
2018-04-11T07:00:32.341Z,85.40
2018-04-11T07:03:34.826Z,84.38
2018-04-11T07:06:37.340Z,84.23
2018-04-11T07:09:39.841Z,82.69
2018-04-11T07:12:42.369Z,82.36
2018-04-11T07:15:44.895Z,83.00
2018-04-11T07:18:47.434Z,83.12
2018-04-11T07:21:50.041Z,81.94
2018-04-11T07:24:52.546Z,82.99
2018-04-11T07:27:55.079Z,83.23
2018-04-11T07:30:57.581Z,83.58
2018-04-11T07:34:00.112Z,83.89
2018-04-11T07:37:02.606Z,83.86
2018-04-11T07:40:05.145Z,84.00
2018-04-11T07:43:07.636Z,83.47
2018-04-11T07:46:10.192Z,84.02
2018-04-11T07:49:12.805Z,82.92
2018-04-11T07:52:15.358Z,84.16
2018-04-11T07:55:17.819Z,83.40
2018-04-11T07:58:20.360Z,82.03
2018-04-11T08:01:22.895Z,81.43
2018-04-11T08:04:25.512Z,80.17
2018-04-11T08:07:28.022Z,79.69
2018-04-11T08:10:30.532Z,79.01
2018-04-11T08:13:33.045Z,77.96
2018-04-11T08:16:35.541Z,78.14
2018-04-11T08:19:37.990Z,79.31
2018-04-11T08:22:40.575Z,80.46
2018-04-11T08:25:43.096Z,80.11
2018-04-11T08:28:45.620Z,81.55
2018-04-11T08:31:48.116Z,80.65
2018-04-11T08:34:50.639Z,79.64
2018-04-11T08:37:53.150Z,80.52
2018-04-11T08:40:55.652Z,79.85
2018-04-11T08:43:58.172Z,80.98
2018-04-11T08:47:00.710Z,79.53
2018-04-11T08:50:03.212Z,79.95
2018-04-11T08:53:05.751Z,79.62
2018-04-11T08:56:08.256Z,80.46
2018-04-11T08:59:10.891Z,80.62
2018-04-11T09:02:13.416Z,79.24
2018-04-11T09:05:15.947Z,78.79
2018-04-11T09:08:18.451Z,79.50
2018-04-11T09:11:21.072Z,78.14
2018-04-11T09:14:23.656Z,77.85
2018-04-11T09:17:26.171Z,77.19
2018-04-11T09:20:28.662Z,77.17
2018-04-11T09:23:31.156Z,76.14
2018-04-11T09:26:33.753Z,77.57
2018-04-11T09:29:36.371Z,76.49
2018-04-11T09:32:38.922Z,77.96
2018-04-11T09:35:41.467Z,77.28
2018-04-11T09:38:43.985Z,75.35
2018-04-11T09:41:46.491Z,76.56
2018-04-11T09:44:49.168Z,76.31
2018-04-11T09:47:51.688Z,74.91
2018-04-11T09:50:54.188Z,74.70
2018-04-11T09:53:56.731Z,73.22
2018-04-11T09:56:59.243Z,75.21
2018-04-11T10:00:01.827Z,75.07
2018-04-11T10:03:06.074Z,76.34
2018-04-11T10:06:08.647Z,75.34
2018-04-11T10:09:11.132Z,76.19
2018-04-11T10:12:13.643Z,74.60
2018-04-11T10:15:16.231Z,74.75
2018-04-11T10:18:18.731Z,73.88
2018-04-11T10:21:21.247Z,74.60
2018-04-11T10:24:23.776Z,72.77
2018-04-11T10:27:26.257Z,74.54
2018-04-11T10:30:28.793Z,71.80
2018-04-11T10:33:31.301Z,72.45
2018-04-11T10:36:33.867Z,73.64
2018-04-11T10:39:36.318Z,71.65
2018-04-11T10:42:38.812Z,71.73
2018-04-11T10:45:41.282Z,71.20
2018-04-11T10:48:43.825Z,71.50
2018-04-11T10:51:46.321Z,71.13
2018-04-11T10:54:48.832Z,70.74
2018-04-11T10:57:51.353Z,69.37
2018-04-11T11:00:53.913Z,68.46
2018-04-11T11:03:56.432Z,69.85
2018-04-11T11:06:58.907Z,68.23
2018-04-11T11:10:01.431Z,69.38
2018-04-11T11:13:03.992Z,68.71
2018-04-11T11:16:06.560Z,69.29
2018-04-11T11:19:09.074Z,69.33
2018-04-11T11:22:11.560Z,66.88
2018-04-11T11:25:14.108Z,69.11
2018-04-11T11:28:16.627Z,68.65
2018-04-11T11:31:19.144Z,67.91
2018-04-11T11:34:21.730Z,67.61
2018-04-11T11:37:24.218Z,67.56
2018-04-11T11:40:26.793Z,68.64
2018-04-11T11:43:29.318Z,69.26
2018-04-11T11:46:31.798Z,69.26
2018-04-11T11:49:34.316Z,70.16
2018-04-11T11:52:36.833Z,70.68
2018-04-11T11:55:39.379Z,69.92
2018-04-11T11:58:41.884Z,70.33
2018-04-11T12:01:44.337Z,70.78
2018-04-11T12:04:46.968Z,71.73
2018-04-11T12:07:49.468Z,70.90
2018-04-11T12:10:51.959Z,71.62
2018-04-11T12:13:54.560Z,70.00
2018-04-11T12:16:57.094Z,70.00
2018-04-11T12:19:59.582Z,69.33
2018-04-11T12:23:02.123Z,71.32
2018-04-11T12:26:04.623Z,71.96
2018-04-11T12:29:07.259Z,70.81
2018-04-11T12:32:09.769Z,72.04
2018-04-11T12:35:12.298Z,72.58
2018-04-11T12:38:14.803Z,71.53
2018-04-11T12:41:17.396Z,69.80
2018-04-11T12:44:19.921Z,69.75
2018-04-11T12:47:22.409Z,69.55
2018-04-11T12:50:24.908Z,69.88
2018-04-11T12:53:27.413Z,69.39
2018-04-11T12:56:29.894Z,69.12
2018-04-11T12:59:32.469Z,67.60
2018-04-11T13:02:35.032Z,67.94
2018-04-11T13:05:37.522Z,68.73
2018-04-11T13:08:40.038Z,69.12
2018-04-11T13:11:42.612Z,70.19
2018-04-11T13:14:45.081Z,70.26
2018-04-11T13:17:47.609Z,71.31
2018-04-11T13:20:50.110Z,71.77
2018-04-11T13:23:52.576Z,71.38
2018-04-11T13:26:55.120Z,69.92
2018-04-11T13:29:57.654Z,70.00
2018-04-11T13:33:00.190Z,71.49
2018-04-11T13:36:02.741Z,71.80
2018-04-11T13:39:05.479Z,71.09
2018-04-11T13:42:07.980Z,72.16
2018-04-11T13:45:10.524Z,71.31
2018-04-11T13:48:12.991Z,70.81
2018-04-11T13:51:15.521Z,71.79
2018-04-11T13:54:18.037Z,73.01
2018-04-11T13:57:20.654Z,72.46
2018-04-11T14:00:23.191Z,71.28
2018-04-11T14:07:03.337Z,71.02
2018-04-11T14:10:05.817Z,72.32
2018-04-11T14:13:08.327Z,73.48
2018-04-11T14:16:10.870Z,74.28
2018-04-11T14:19:13.372Z,74.94
2018-04-11T14:22:15.959Z,75.17
2018-04-11T14:25:18.548Z,75.18
2018-04-11T14:28:21.014Z,75.14
2018-04-11T14:31:23.580Z,75.40
2018-04-11T14:34:26.051Z,75.00
2018-04-11T14:37:28.552Z,74.82
2018-04-11T14:40:31.062Z,74.84
2018-04-11T14:43:33.577Z,73.69
2018-04-11T14:46:36.121Z,73.90
2018-04-11T14:49:38.622Z,74.06
2018-04-11T14:52:41.074Z,74.17
2018-04-11T14:55:43.555Z,74.95
2018-04-11T14:58:46.058Z,74.50
2018-04-11T15:01:48.580Z,75.09
2018-04-11T15:04:51.134Z,74.80
2018-04-11T15:07:53.622Z,74.63
2018-04-11T15:10:56.141Z,75.23
2018-04-11T15:13:58.621Z,75.28
2018-04-11T15:17:01.115Z,75.34
2018-04-11T15:20:03.678Z,75.31
2018-04-11T15:23:06.158Z,76.16
2018-04-11T15:26:08.684Z,75.74
2018-04-11T15:29:11.186Z,75.64
2018-04-11T15:32:13.697Z,75.22
2018-04-11T15:35:16.245Z,75.28
2018-04-11T15:38:18.743Z,74.92
2018-04-11T15:41:21.212Z,75.08
2018-04-11T15:44:23.736Z,74.21
2018-04-11T15:47:26.263Z,74.12
2018-04-11T15:50:28.775Z,73.46
2018-04-11T15:53:31.328Z,73.48
2018-04-11T15:56:33.842Z,73.48
2018-04-11T15:59:36.335Z,73.22
2018-04-11T16:02:38.852Z,73.19
2018-04-11T16:05:41.327Z,73.16
2018-04-11T16:08:43.851Z,73.35
2018-04-11T16:11:46.403Z,73.86
2018-04-11T16:14:48.908Z,72.90
2018-04-11T16:17:51.397Z,73.49
2018-04-11T16:20:53.890Z,74.05
2018-04-11T16:23:56.396Z,74.34
2018-04-11T16:26:58.919Z,73.54
2018-04-11T16:30:01.429Z,74.13
2018-04-11T16:33:03.937Z,74.34
2018-04-11T16:36:06.442Z,74.40
2018-04-11T16:39:08.964Z,74.28
2018-04-11T16:42:11.485Z,73.47
2018-04-11T16:45:14.020Z,73.35
2018-04-11T16:48:17.002Z,72.90
2018-04-11T16:51:19.556Z,73.96
2018-04-11T16:54:22.015Z,73.86
2018-04-11T16:57:24.531Z,73.38
2018-04-11T17:00:26.993Z,73.82
2018-04-11T17:03:29.679Z,75.54
2018-04-11T17:06:32.212Z,73.98
2018-04-11T17:09:34.752Z,73.96
2018-04-11T17:12:37.193Z,73.32
2018-04-11T17:15:39.716Z,73.38
2018-04-11T17:18:42.259Z,73.28
2018-04-11T17:21:57.754Z,74.13
2018-04-11T17:25:12.068Z,73.86
2018-04-11T17:32:03.704Z,72.93
2018-04-11T17:35:06.237Z,73.24
2018-04-11T17:38:08.776Z,74.13
2018-04-11T17:41:11.277Z,74.12
2018-04-11T17:44:13.865Z,74.45
2018-04-11T17:47:16.518Z,75.02
2018-04-11T17:50:19.006Z,75.31
2018-04-11T17:53:21.492Z,74.96
2018-04-11T17:56:24.023Z,74.75
2018-04-11T17:59:26.510Z,75.06
2018-04-11T18:02:29.084Z,75.49
2018-04-11T18:05:31.583Z,76.42
2018-04-11T18:08:34.116Z,76.76
2018-04-11T18:11:36.655Z,77.71
2018-04-11T18:14:39.185Z,78.47
2018-04-11T18:17:41.664Z,79.11
2018-04-11T18:20:44.188Z,80.01
2018-04-11T18:23:46.731Z,80.56
2018-04-11T18:26:49.319Z,81.39
2018-04-11T18:29:51.956Z,81.52
2018-04-11T18:32:54.555Z,81.84
2018-04-11T18:35:57.101Z,82.12
2018-04-11T18:38:59.651Z,82.91
2018-04-11T18:42:02.183Z,83.36
2018-04-11T18:45:04.748Z,83.45
2018-04-11T18:48:07.282Z,84.06
2018-04-11T18:51:09.808Z,84.90
2018-04-11T18:54:12.339Z,85.46
2018-04-11T18:57:14.953Z,86.23
2018-04-11T19:00:17.614Z,86.41
2018-04-11T19:03:20.165Z,86.80
2018-04-11T19:06:22.707Z,86.50
2018-04-11T19:09:25.250Z,86.11
2018-04-11T19:12:27.942Z,84.79
2018-04-11T19:15:30.614Z,84.36
2018-04-11T19:18:33.131Z,83.77
2018-04-11T19:21:35.667Z,83.69
2018-04-11T19:24:38.173Z,83.85
2018-04-11T19:27:40.654Z,83.84
2018-04-11T19:30:43.175Z,84.35
2018-04-11T19:33:45.706Z,84.02
2018-04-11T19:36:48.184Z,84.08
2018-04-11T19:39:50.705Z,83.67
2018-04-11T19:42:53.216Z,83.15
2018-04-11T19:45:55.728Z,83.23
2018-04-11T19:48:58.300Z,82.77
2018-04-11T19:52:00.803Z,82.04
2018-04-11T19:55:03.307Z,82.36
2018-04-11T19:58:05.917Z,81.72
2018-04-11T20:01:08.454Z,81.25
2018-04-11T20:04:10.994Z,81.69
2018-04-11T20:07:13.468Z,81.01
2018-04-11T20:10:16.041Z,81.71
2018-04-11T20:13:18.607Z,82.07
2018-04-11T20:16:21.109Z,82.07
2018-04-11T20:19:23.626Z,82.18
2018-04-11T20:22:26.146Z,82.29
2018-04-11T20:25:28.685Z,82.42
2018-04-11T20:28:32.105Z,82.39
2018-04-11T20:31:34.676Z,83.11
2018-04-11T20:34:37.199Z,83.34
2018-04-11T20:37:39.779Z,83.87
2018-04-11T20:40:42.229Z,84.52
2018-04-11T20:43:44.740Z,84.94
2018-04-11T20:46:47.247Z,85.28
2018-04-11T20:49:49.756Z,85.89
2018-04-11T20:52:52.234Z,85.94
2018-04-11T20:55:54.784Z,86.25
2018-04-11T20:58:57.303Z,86.58
2018-04-11T21:01:59.838Z,86.86
2018-04-11T21:05:02.309Z,86.86
2018-04-11T21:08:04.833Z,87.50
2018-04-11T21:11:07.775Z,87.67
2018-04-11T21:14:10.292Z,87.48
2018-04-11T21:17:12.766Z,87.45
2018-04-11T21:20:15.306Z,87.48
2018-04-11T21:23:17.809Z,87.67
2018-04-11T21:26:20.322Z,88.06
2018-04-11T21:29:22.924Z,87.39
2018-04-11T21:32:25.476Z,87.77
2018-04-11T21:35:27.955Z,88.21
2018-04-11T21:38:30.461Z,88.25
2018-04-11T21:41:32.997Z,88.80
2018-04-11T21:44:35.539Z,89.10
2018-04-11T21:47:38.036Z,89.27
2018-04-11T21:50:40.577Z,89.55
2018-04-11T21:53:43.046Z,89.66
2018-04-11T21:56:45.556Z,89.79
2018-04-11T21:59:48.022Z,89.85
2018-04-11T22:02:50.536Z,89.90
2018-04-11T22:05:53.046Z,90.13
2018-04-11T22:08:55.529Z,90.34
2018-04-11T22:11:58.015Z,90.43
2018-04-11T22:15:00.504Z,90.62
2018-04-11T22:18:03.057Z,90.78
2018-04-11T22:21:05.528Z,90.66
2018-04-11T22:24:08.030Z,90.50
2018-04-11T22:27:10.505Z,90.10
2018-04-11T22:30:13.001Z,89.83
2018-04-11T22:33:15.492Z,90.03
2018-04-11T22:36:18.003Z,90.34
2018-04-11T22:39:20.543Z,90.82
2018-04-11T22:42:23.042Z,91.31
2018-04-11T22:45:25.797Z,91.50
2018-04-11T22:48:28.387Z,91.34
2018-04-11T22:51:30.878Z,91.76
2018-04-11T22:54:33.405Z,92.22
2018-04-11T22:57:35.939Z,92.12
2018-04-11T23:00:38.462Z,92.46
2018-04-11T23:03:40.960Z,92.56
2018-04-11T23:06:43.450Z,92.54
2018-04-11T23:09:45.971Z,92.53
2018-04-11T23:12:48.453Z,92.90
2018-04-11T23:15:50.936Z,93.05
2018-04-11T23:18:53.490Z,93.17
2018-04-11T23:21:55.936Z,93.37
2018-04-11T23:24:58.441Z,93.64
2018-04-11T23:28:00.976Z,93.88
2018-04-11T23:31:03.470Z,93.80
2018-04-11T23:34:05.940Z,93.72
2018-04-11T23:37:08.491Z,94.01
2018-04-11T23:40:11.001Z,94.62
2018-04-11T23:43:13.476Z,94.53
2018-04-11T23:46:16.006Z,94.19
2018-04-11T23:49:18.545Z,94.36
2018-04-11T23:52:21.021Z,94.57
2018-04-11T23:55:23.540Z,94.63
2018-04-11T23:58:26.033Z,94.55
